createdAt,value
2022-08-14T00:00:07.115Z,22.7
2022-08-14T00:01:10.129Z,22.7
2022-08-14T00:02:07.221Z,22.7
2022-08-14T00:03:07.104Z,22.7
2022-08-14T00:04:34.411Z,22.7
2022-08-14T00:05:07.245Z,22.7
2022-08-14T00:06:25.429Z,22.7
2022-08-14T00:07:07.149Z,22.5
2022-08-14T00:08:14.162Z,22.6
2022-08-14T00:09:07.158Z,22.6
2022-08-14T00:10:50.022Z,22.7
2022-08-14T00:11:07.152Z,22.8
2022-08-14T00:12:07.160Z,22.8
2022-08-14T00:13:07.285Z,22.8
2022-08-14T00:14:07.117Z,22.8
2022-08-14T00:15:07.146Z,22.8
2022-08-14T00:16:07.186Z,22.8
2022-08-14T00:17:07.181Z,22.8
2022-08-14T00:18:07.192Z,22.8
2022-08-14T00:19:18.694Z,22.8
2022-08-14T00:20:07.210Z,23
2022-08-14T00:21:11.175Z,23
2022-08-14T00:22:07.207Z,22.9
2022-08-14T00:23:12.433Z,22.9
2022-08-14T00:24:07.234Z,22.7
2022-08-14T00:25:07.120Z,22.8
2022-08-14T00:26:08.366Z,22.7
2022-08-14T00:27:07.171Z,22.6
2022-08-14T00:28:07.150Z,22.6
2022-08-14T00:29:07.152Z,22.5
2022-08-14T00:30:07.260Z,22.6
2022-08-14T00:31:09.561Z,22.4
2022-08-14T00:32:50.293Z,22.5
2022-08-14T00:33:07.327Z,22.4
2022-08-14T00:34:36.684Z,22.4
2022-08-14T00:35:07.190Z,22.4
2022-08-14T00:36:38.832Z,22.4
2022-08-14T00:37:07.223Z,22.4
2022-08-14T00:38:07.117Z,22.3
2022-08-14T00:39:09.336Z,22.3
2022-08-14T00:40:27.372Z,22.3
2022-08-14T00:41:07.124Z,22.3
2022-08-14T00:42:07.136Z,22.2
2022-08-14T00:43:07.482Z,22.2
2022-08-14T00:44:07.251Z,22.2
2022-08-14T00:45:07.153Z,22.3
2022-08-14T00:46:07.913Z,22.4
2022-08-14T00:47:07.386Z,22.5
2022-08-14T00:48:07.176Z,22.5
2022-08-14T00:49:07.179Z,22.4
2022-08-14T00:50:07.142Z,22.4
2022-08-14T00:51:07.190Z,22.6
2022-08-14T00:52:07.118Z,22.5
2022-08-14T00:53:10.552Z,22.4
2022-08-14T00:54:17.049Z,22.4
2022-08-14T00:55:07.222Z,22.3
2022-08-14T00:56:08.637Z,22.2
2022-08-14T00:57:07.423Z,22.2
2022-08-14T00:58:07.335Z,22.1
2022-08-14T00:59:07.169Z,22.1
2022-08-14T01:00:07.123Z,22
2022-08-14T01:01:07.328Z,22.1
2022-08-14T01:02:09.190Z,22.1
2022-08-14T01:03:07.186Z,22.2
2022-08-14T01:04:07.286Z,22.1
2022-08-14T01:05:07.169Z,22.2
2022-08-14T01:06:07.399Z,22.1
2022-08-14T01:07:08.129Z,22.1
2022-08-14T01:08:07.198Z,22.1
2022-08-14T01:09:07.215Z,22
2022-08-14T01:10:07.168Z,22
2022-08-14T01:11:07.142Z,22
2022-08-14T01:12:07.831Z,22
2022-08-14T01:13:07.238Z,22
2022-08-14T01:14:25.810Z,22
2022-08-14T01:15:07.246Z,22
2022-08-14T01:16:07.157Z,22
2022-08-14T01:17:08.984Z,21.9
2022-08-14T01:18:07.146Z,21.9
2022-08-14T01:19:07.277Z,22
2022-08-14T01:20:07.185Z,22
2022-08-14T01:21:07.341Z,21.9
2022-08-14T01:22:07.186Z,21.9
2022-08-14T01:23:07.202Z,21.9
2022-08-14T01:24:07.130Z,21.9
2022-08-14T01:25:07.821Z,21.9
2022-08-14T01:26:07.385Z,21.9
2022-08-14T01:27:07.309Z,21.9
2022-08-14T01:28:07.225Z,22
2022-08-14T01:29:07.147Z,22
2022-08-14T01:30:07.133Z,21.8
2022-08-14T01:31:07.150Z,21.8
2022-08-14T01:32:10.467Z,21.9
2022-08-14T01:33:07.259Z,21.9
2022-08-14T01:35:17.423Z,21.9
2022-08-14T01:35:20.413Z,22
2022-08-14T01:36:07.333Z,21.9
2022-08-14T01:37:07.467Z,21.9
2022-08-14T01:38:07.186Z,21.8
2022-08-14T01:39:09.553Z,21.8
2022-08-14T01:40:07.200Z,21.7
2022-08-14T01:41:14.750Z,21.8
2022-08-14T01:42:07.128Z,21.8
2022-08-14T01:43:07.225Z,21.7
2022-08-14T01:44:07.227Z,21.8
2022-08-14T01:45:07.244Z,21.8
2022-08-14T01:46:07.224Z,21.9
2022-08-14T01:47:07.254Z,21.9
2022-08-14T01:48:07.145Z,21.8
2022-08-14T01:49:07.584Z,21.7
2022-08-14T01:50:07.141Z,21.7
2022-08-14T01:51:19.077Z,21.6
2022-08-14T01:52:09.021Z,21.5
2022-08-14T01:53:07.558Z,21.6
2022-08-14T01:54:07.184Z,21.7
2022-08-14T01:55:07.137Z,21.7
2022-08-14T01:56:12.032Z,21.5
2022-08-14T01:57:07.238Z,21.5
2022-08-14T01:58:19.815Z,21.4
2022-08-14T01:59:07.122Z,21.5
2022-08-14T02:00:07.272Z,21.6
2022-08-14T02:01:07.715Z,21.6
2022-08-14T02:02:07.157Z,21.5
2022-08-14T02:03:07.160Z,21.4
2022-08-14T02:04:20.714Z,21.4
2022-08-14T02:05:07.152Z,21.4
2022-08-14T02:06:33.464Z,21.3
2022-08-14T02:07:07.176Z,21.4
2022-08-14T02:08:09.471Z,21.4
2022-08-14T02:09:19.081Z,21.5
2022-08-14T02:10:07.181Z,21.4
2022-08-14T02:11:07.305Z,21.4
2022-08-14T02:12:07.194Z,21.4
2022-08-14T02:13:07.203Z,21.3
2022-08-14T02:14:07.876Z,21.3
2022-08-14T02:15:07.213Z,21.3
2022-08-14T02:16:21.717Z,21.3
2022-08-14T02:17:07.239Z,21.2
2022-08-14T02:18:07.241Z,21.2
2022-08-14T02:19:07.141Z,21.1
2022-08-14T02:20:07.238Z,21
2022-08-14T02:21:07.172Z,21.1
2022-08-14T02:22:07.258Z,21.1
2022-08-14T02:23:08.318Z,21.1
2022-08-14T02:24:07.144Z,21.1
2022-08-14T02:25:07.176Z,21
2022-08-14T02:26:18.099Z,21
2022-08-14T02:28:22.670Z,21
2022-08-14T02:28:25.151Z,21
2022-08-14T02:29:07.205Z,21
2022-08-14T02:30:07.213Z,21
2022-08-14T02:31:08.966Z,21
2022-08-14T02:32:07.325Z,21
2022-08-14T02:33:07.229Z,20.9
2022-08-14T02:34:14.789Z,20.9
2022-08-14T02:35:07.461Z,21
2022-08-14T02:37:03.741Z,20.9
2022-08-14T02:37:07.152Z,21
2022-08-14T02:38:07.163Z,21.2
2022-08-14T02:39:07.170Z,21.2
2022-08-14T02:40:07.179Z,21.2
2022-08-14T02:41:08.959Z,21.3
2022-08-14T02:42:07.177Z,21.3
2022-08-14T02:43:07.816Z,21.3
2022-08-14T02:44:07.550Z,21.4
2022-08-14T02:45:07.211Z,21.4
2022-08-14T02:46:07.153Z,21.4
2022-08-14T02:47:07.277Z,21.4
2022-08-14T02:48:10.401Z,21.4
2022-08-14T02:49:07.150Z,21.5
2022-08-14T02:50:07.209Z,21.4
2022-08-14T02:51:08.992Z,21.5
2022-08-14T02:52:56.694Z,21.5
2022-08-14T02:53:08.621Z,21.4
2022-08-14T02:54:07.163Z,21.4
2022-08-14T02:55:07.182Z,21.3
2022-08-14T02:56:30.453Z,21.3
2022-08-14T02:57:16.157Z,21.4
2022-08-14T02:58:07.159Z,21.3
2022-08-14T02:59:07.177Z,21.2
2022-08-14T03:00:10.236Z,21.2
2022-08-14T03:01:07.275Z,21.2
2022-08-14T03:02:07.257Z,21.3
2022-08-14T03:03:07.982Z,21.4
2022-08-14T03:04:07.226Z,21.5
2022-08-14T03:05:07.235Z,21.5
2022-08-14T03:06:07.173Z,21.5
2022-08-14T03:07:08.310Z,21.5
2022-08-14T03:08:07.898Z,21.6
2022-08-14T03:09:07.260Z,21.6
2022-08-14T03:10:26.504Z,21.6
2022-08-14T03:11:07.716Z,21.5
2022-08-14T03:12:07.180Z,21.6
2022-08-14T03:13:07.159Z,21.6
2022-08-14T03:14:07.296Z,21.5
2022-08-14T03:15:07.190Z,21.5
2022-08-14T03:16:09.182Z,21.7
2022-08-14T03:17:07.224Z,21.6
2022-08-14T03:18:07.174Z,21.5
2022-08-14T03:19:07.161Z,21.4
2022-08-14T03:20:07.219Z,21.4
2022-08-14T03:21:07.440Z,21.4
2022-08-14T03:22:09.405Z,21.4
2022-08-14T03:23:07.148Z,21.4
2022-08-14T03:24:07.252Z,21.5
2022-08-14T03:25:07.263Z,21.4
2022-08-14T03:26:07.273Z,21.4
2022-08-14T03:27:07.173Z,21.4
2022-08-14T03:28:07.244Z,21.4
2022-08-14T03:29:07.151Z,21.4
2022-08-14T03:30:07.188Z,21.5
2022-08-14T03:31:08.401Z,21.6
2022-08-14T03:32:07.310Z,21.6
2022-08-14T03:33:07.220Z,21.6
2022-08-14T03:34:10.185Z,21.6
2022-08-14T03:35:09.354Z,21.6
2022-08-14T03:37:38.385Z,21.5
2022-08-14T03:37:50.983Z,21.5
2022-08-14T03:39:14.854Z,21.5
2022-08-14T03:39:15.183Z,21.5
2022-08-14T03:40:07.201Z,21.5
2022-08-14T03:41:07.153Z,21.3
2022-08-14T03:42:07.163Z,21.3
2022-08-14T03:43:07.177Z,21.3
2022-08-14T03:45:26.593Z,21.2
2022-08-14T03:45:26.875Z,21.2
2022-08-14T03:46:38.710Z,21.2
2022-08-14T03:47:08.120Z,21.1
2022-08-14T03:48:11.058Z,21.1
2022-08-14T03:49:07.212Z,21.1
2022-08-14T03:50:07.168Z,21.1
2022-08-14T03:51:07.226Z,21
2022-08-14T03:52:07.677Z,21
2022-08-14T03:53:07.221Z,21.1
2022-08-14T03:54:07.254Z,21
2022-08-14T03:55:07.251Z,20.9
2022-08-14T03:56:07.207Z,20.9
2022-08-14T03:57:07.262Z,21
2022-08-14T03:58:07.161Z,21
2022-08-14T03:59:07.286Z,21.1
2022-08-14T04:00:07.217Z,21
2022-08-14T04:01:08.330Z,21.1
2022-08-14T04:02:32.581Z,21
2022-08-14T04:03:07.171Z,20.9
2022-08-14T04:04:07.830Z,20.9
2022-08-14T04:05:11.612Z,20.8
2022-08-14T04:06:07.189Z,20.8
2022-08-14T04:07:07.337Z,20.7
2022-08-14T04:08:22.536Z,20.8
2022-08-14T04:09:07.340Z,20.8
2022-08-14T04:10:07.176Z,20.7
2022-08-14T04:11:08.093Z,20.7
2022-08-14T04:12:08.455Z,20.7
2022-08-14T04:13:07.650Z,20.7
2022-08-14T04:14:07.218Z,20.8
2022-08-14T04:15:07.279Z,20.7
2022-08-14T04:16:10.321Z,20.7
2022-08-14T04:17:10.196Z,20.8
2022-08-14T04:18:07.290Z,20.7
2022-08-14T04:19:07.185Z,20.7
2022-08-14T04:20:07.298Z,20.7
2022-08-14T04:21:07.217Z,20.6
2022-08-14T04:22:07.214Z,20.6
2022-08-14T04:23:07.211Z,20.6
2022-08-14T04:24:07.332Z,20.5
2022-08-14T04:25:07.177Z,20.4
2022-08-14T04:26:08.115Z,20.4
2022-08-14T04:27:07.181Z,20.5
2022-08-14T04:28:07.253Z,20.5
2022-08-14T04:29:15.038Z,20.4
2022-08-14T04:30:07.183Z,20.4
2022-08-14T04:31:07.287Z,20.5
2022-08-14T04:32:58.578Z,20.7
2022-08-14T04:33:14.574Z,20.7
2022-08-14T04:34:07.963Z,20.9
2022-08-14T04:35:10.597Z,20.9
2022-08-14T04:36:07.186Z,20.9
2022-08-14T04:37:07.464Z,21
2022-08-14T04:38:07.754Z,21
2022-08-14T04:39:07.180Z,21
2022-08-14T04:40:08.745Z,21
2022-08-14T04:41:07.191Z,21
2022-08-14T04:42:11.886Z,21
2022-08-14T04:43:07.186Z,21
2022-08-14T04:44:07.179Z,20.9
2022-08-14T04:45:07.185Z,20.9
2022-08-14T04:46:07.170Z,20.9
2022-08-14T04:47:07.166Z,21
2022-08-14T04:48:09.971Z,21
2022-08-14T04:49:08.093Z,20.9
2022-08-14T04:50:07.174Z,20.9
2022-08-14T04:51:07.204Z,21
2022-08-14T04:52:15.455Z,21
2022-08-14T04:53:07.206Z,21.1
2022-08-14T04:54:07.219Z,21.1
2022-08-14T04:55:07.207Z,21
2022-08-14T04:56:30.246Z,21.1
2022-08-14T04:57:07.225Z,21.1
2022-08-14T04:58:07.246Z,21
2022-08-14T04:59:09.926Z,21
2022-08-14T05:00:07.207Z,21
2022-08-14T05:01:12.721Z,21.1
2022-08-14T05:02:07.464Z,21.1
2022-08-14T05:03:07.393Z,21
2022-08-14T05:04:07.219Z,21.1
2022-08-14T05:05:07.289Z,21.2
2022-08-14T05:06:38.455Z,21.3
2022-08-14T05:07:07.294Z,21.3
2022-08-14T05:08:07.189Z,21.4
2022-08-14T05:09:07.320Z,21.4
2022-08-14T05:10:13.011Z,21.3
2022-08-14T05:11:07.221Z,21.3
2022-08-14T05:13:10.769Z,21.3
2022-08-14T05:13:24.843Z,21.3
2022-08-14T05:14:33.934Z,21.4
2022-08-14T05:15:07.241Z,21.4
2022-08-14T05:16:07.251Z,21.3
2022-08-14T05:17:07.241Z,21.4
2022-08-14T05:18:17.690Z,21.4
2022-08-14T05:19:18.400Z,21.4
2022-08-14T05:21:04.408Z,21.5
2022-08-14T05:21:57.066Z,21.6
2022-08-14T05:22:16.500Z,21.6
2022-08-14T05:23:07.289Z,21.6
2022-08-14T05:24:07.310Z,21.6
2022-08-14T05:25:07.204Z,21.5
2022-08-14T05:26:07.210Z,21.5
2022-08-14T05:27:07.228Z,21.5
2022-08-14T05:28:11.304Z,21.5
2022-08-14T05:29:07.203Z,21.6
2022-08-14T05:30:07.251Z,21.7
2022-08-14T05:31:07.201Z,21.7
2022-08-14T05:32:07.191Z,21.6
2022-08-14T05:33:07.189Z,21.6
2022-08-14T05:34:07.365Z,21.6
2022-08-14T05:35:07.279Z,21.8
2022-08-14T05:36:07.272Z,21.8
2022-08-14T05:37:07.283Z,21.8
2022-08-14T05:38:10.702Z,21.8
2022-08-14T05:39:07.303Z,21.9
2022-08-14T05:40:07.314Z,21.9
2022-08-14T05:41:08.782Z,21.9
2022-08-14T05:42:10.214Z,21.8
2022-08-14T05:43:07.382Z,21.9
2022-08-14T05:44:07.468Z,22
2022-08-14T05:45:11.131Z,22
2022-08-14T05:46:07.380Z,22
2022-08-14T05:47:07.251Z,22
2022-08-14T05:48:07.256Z,22.1
2022-08-14T05:49:07.277Z,22.1
2022-08-14T05:50:07.268Z,22.1
2022-08-14T05:51:07.283Z,22.1
2022-08-14T05:52:09.907Z,22.2
2022-08-14T05:53:07.286Z,22.2
2022-08-14T05:54:10.177Z,22.2
2022-08-14T05:55:07.237Z,22.2
2022-08-14T05:56:07.311Z,22.3
2022-08-14T05:57:07.210Z,22.3
2022-08-14T05:58:07.322Z,22.4
2022-08-14T05:59:07.614Z,22.3
2022-08-14T06:00:07.211Z,22.4
2022-08-14T06:01:07.285Z,22.4
2022-08-14T06:02:07.250Z,22.4
2022-08-14T06:03:07.267Z,22.4
2022-08-14T06:04:07.256Z,22.6
2022-08-14T06:05:07.268Z,22.6
2022-08-14T06:06:07.274Z,22.5
2022-08-14T06:07:07.289Z,22.6
2022-08-14T06:08:08.496Z,22.7
2022-08-14T06:09:07.269Z,22.8
2022-08-14T06:10:07.308Z,23
2022-08-14T06:11:07.201Z,22.9
2022-08-14T06:12:07.212Z,23
2022-08-14T06:13:07.427Z,23
2022-08-14T06:14:20.778Z,23.1
2022-08-14T06:15:08.109Z,23.2
2022-08-14T06:16:07.302Z,23.2
2022-08-14T06:17:07.310Z,23.2
2022-08-14T06:18:07.274Z,23.3
2022-08-14T06:19:07.213Z,23.3
2022-08-14T06:20:07.257Z,23.4
2022-08-14T06:21:12.961Z,23.4
2022-08-14T06:22:07.291Z,23.4
2022-08-14T06:23:07.270Z,23.3
2022-08-14T06:24:10.514Z,23.4
2022-08-14T06:25:07.300Z,23.4
2022-08-14T06:26:07.218Z,23.3
2022-08-14T06:27:10.052Z,23.2
2022-08-14T06:28:07.307Z,23.4
2022-08-14T06:29:07.322Z,23.4
2022-08-14T06:30:07.316Z,23.5
2022-08-14T06:31:07.196Z,23.5
2022-08-14T06:32:38.356Z,23.6
2022-08-14T06:33:07.254Z,23.7
2022-08-14T06:35:03.350Z,23.7
2022-08-14T06:35:13.394Z,23.7
2022-08-14T06:36:07.255Z,23.6
2022-08-14T06:37:07.245Z,23.6
2022-08-14T06:38:07.206Z,23.7
2022-08-14T06:39:10.160Z,23.6
2022-08-14T06:40:07.328Z,23.8
2022-08-14T06:41:10.965Z,23.8
2022-08-14T06:42:07.294Z,23.8
2022-08-14T06:43:07.322Z,23.9
2022-08-14T06:44:07.316Z,24
2022-08-14T06:45:07.216Z,24.1
2022-08-14T06:46:07.225Z,24.3
2022-08-14T06:47:07.319Z,24.3
2022-08-14T06:48:12.492Z,24.2
2022-08-14T06:49:07.251Z,24.3
2022-08-14T06:50:07.253Z,24.4
2022-08-14T06:51:07.260Z,24.3
2022-08-14T06:52:07.254Z,24.3
2022-08-14T06:53:07.218Z,24.4
2022-08-14T06:54:08.488Z,24.4
2022-08-14T06:55:07.387Z,24.4
2022-08-14T06:56:07.278Z,24.6
2022-08-14T06:57:07.214Z,24.5
2022-08-14T06:58:07.241Z,24.5
2022-08-14T06:59:07.312Z,24.6
2022-08-14T07:00:07.311Z,24.6
2022-08-14T07:01:07.343Z,24.6
2022-08-14T07:02:13.654Z,24.6
2022-08-14T07:03:07.247Z,24.6
2022-08-14T07:04:07.241Z,24.7
2022-08-14T07:05:07.342Z,24.8
2022-08-14T07:06:11.780Z,24.7
2022-08-14T07:07:07.247Z,24.8
2022-08-14T07:08:07.261Z,24.9
2022-08-14T07:09:07.283Z,25
2022-08-14T07:10:07.272Z,25.1
2022-08-14T07:11:07.281Z,25.1
2022-08-14T07:12:07.287Z,25.1
2022-08-14T07:13:07.590Z,25.1
2022-08-14T07:14:07.299Z,25.1
2022-08-14T07:15:07.300Z,25.1
2022-08-14T07:16:07.308Z,25.1
2022-08-14T07:17:07.317Z,25
2022-08-14T07:18:08.821Z,25.1
2022-08-14T07:19:07.285Z,25
2022-08-14T07:20:07.555Z,25.2
2022-08-14T07:21:07.421Z,25.3
2022-08-14T07:22:17.551Z,25.3
2022-08-14T07:23:09.207Z,25.4
2022-08-14T07:24:09.751Z,25.4
2022-08-14T07:25:07.265Z,25.4
2022-08-14T07:26:07.270Z,25.6
2022-08-14T07:27:07.278Z,25.7
2022-08-14T07:28:07.281Z,25.6
2022-08-14T07:29:07.244Z,25.7
2022-08-14T07:30:09.016Z,25.7
2022-08-14T07:31:07.465Z,25.7
2022-08-14T07:32:07.507Z,25.8
2022-08-14T07:33:07.534Z,26
2022-08-14T07:34:07.229Z,26.1
2022-08-14T07:35:07.224Z,26
2022-08-14T07:36:26.321Z,26.1
2022-08-14T07:37:07.270Z,26.1
2022-08-14T07:38:07.237Z,26.1
2022-08-14T07:39:13.114Z,26.1
2022-08-14T07:40:07.276Z,26.2
2022-08-14T07:41:14.339Z,26.3
2022-08-14T07:42:07.242Z,26.2
2022-08-14T07:43:14.523Z,26.4
2022-08-14T07:44:29.077Z,26.4
2022-08-14T07:45:07.250Z,26.2
2022-08-14T07:46:07.240Z,26.2
2022-08-14T07:47:07.410Z,26.3
2022-08-14T07:48:07.324Z,26.2
2022-08-14T07:49:07.249Z,26.4
2022-08-14T07:50:07.326Z,26.5
2022-08-14T07:51:11.057Z,26.6
2022-08-14T07:52:07.345Z,26.5
2022-08-14T07:53:07.337Z,26.5
2022-08-14T07:54:11.119Z,26.6
2022-08-14T07:55:07.249Z,26.7
2022-08-14T07:56:21.428Z,26.8
2022-08-14T07:57:12.096Z,26.8
2022-08-14T07:58:30.648Z,26.9
2022-08-14T07:59:09.114Z,26.9
2022-08-14T08:00:07.279Z,26.8
2022-08-14T08:01:07.379Z,27
2022-08-14T08:02:07.296Z,27.2
2022-08-14T08:03:07.351Z,27.1
2022-08-14T08:04:16.674Z,27.3
2022-08-14T08:05:07.323Z,27.3
2022-08-14T08:06:10.581Z,27.2
2022-08-14T08:07:07.318Z,27.1
2022-08-14T08:08:08.285Z,27.2
2022-08-14T08:09:07.345Z,27.4
2022-08-14T08:10:07.291Z,27.5
2022-08-14T08:11:08.449Z,27.6
2022-08-14T08:12:09.237Z,27.7
2022-08-14T08:13:07.253Z,27.7
2022-08-14T08:14:10.860Z,27.7
2022-08-14T08:15:08.022Z,27.5
2022-08-14T08:16:07.293Z,27.6
2022-08-14T08:17:07.300Z,27.7
2022-08-14T08:18:07.301Z,27.6
2022-08-14T08:19:12.635Z,27.7
2022-08-14T08:20:08.941Z,27.4
2022-08-14T08:21:07.312Z,27.6
2022-08-14T08:22:07.324Z,27.7
2022-08-14T08:23:07.245Z,27.8
2022-08-14T08:24:07.243Z,27.9
2022-08-14T08:25:13.999Z,28
2022-08-14T08:26:07.344Z,28.1
2022-08-14T08:27:07.349Z,27.9
2022-08-14T08:28:08.161Z,27.9
2022-08-14T08:29:07.268Z,27.7
2022-08-14T08:30:10.297Z,27.9
2022-08-14T08:31:08.222Z,28.1
2022-08-14T08:32:07.261Z,28.3
2022-08-14T08:33:07.393Z,28.3
2022-08-14T08:34:07.304Z,28.3
2022-08-14T08:35:07.305Z,28.3
2022-08-14T08:36:07.854Z,28.5
2022-08-14T08:37:07.525Z,28.4
2022-08-14T08:38:14.368Z,28.5
2022-08-14T08:39:17.617Z,28.6
2022-08-14T08:40:07.390Z,28.7
2022-08-14T08:41:09.716Z,28.7
2022-08-14T08:42:07.344Z,28.6
2022-08-14T08:43:07.253Z,28.6
2022-08-14T08:44:17.463Z,28.8
2022-08-14T08:45:08.133Z,28.6
2022-08-14T08:46:07.270Z,28.5
2022-08-14T08:47:07.377Z,28.6
2022-08-14T08:48:18.014Z,28.8
2022-08-14T08:49:07.302Z,29
2022-08-14T08:50:23.503Z,28.9
2022-08-14T08:51:07.318Z,28.9
2022-08-14T08:52:07.249Z,28.9
2022-08-14T08:53:07.281Z,29
2022-08-14T08:54:10.738Z,28.8
2022-08-14T08:55:07.333Z,28.8
2022-08-14T08:56:07.254Z,28.8
2022-08-14T08:57:07.340Z,28.9
2022-08-14T08:58:16.161Z,29.1
2022-08-14T08:59:07.364Z,29.3
2022-08-14T09:00:18.768Z,29.6
2022-08-14T09:01:07.468Z,29.8
2022-08-14T09:02:09.221Z,29.8
2022-08-14T09:03:07.266Z,29.7
2022-08-14T09:04:07.672Z,29.5
2022-08-14T09:05:07.243Z,29.5
2022-08-14T09:06:53.692Z,29.6
2022-08-14T09:07:10.933Z,29.4
2022-08-14T09:08:08.187Z,29.2
2022-08-14T09:09:07.307Z,29.3
2022-08-14T09:10:07.325Z,29.3
2022-08-14T09:11:19.678Z,29.3
2022-08-14T09:12:07.270Z,29.5
2022-08-14T09:13:07.256Z,29.6
2022-08-14T09:14:07.269Z,29.6
2022-08-14T09:15:08.891Z,29.6
2022-08-14T09:16:19.039Z,29.8
2022-08-14T09:17:07.244Z,30
2022-08-14T09:18:07.268Z,29.9
2022-08-14T09:19:07.272Z,30
2022-08-14T09:20:07.265Z,30.2
2022-08-14T09:21:07.273Z,30
2022-08-14T09:22:36.070Z,29.9
2022-08-14T09:23:07.534Z,30.1
2022-08-14T09:24:28.835Z,30.2
2022-08-14T09:25:07.736Z,30.2
2022-08-14T09:26:20.989Z,30.2
2022-08-14T09:27:07.324Z,30.3
2022-08-14T09:28:07.337Z,30.4
2022-08-14T09:29:07.338Z,30.4
2022-08-14T09:30:12.718Z,30.4
2022-08-14T09:31:17.374Z,30.6
2022-08-14T09:32:10.213Z,30.7
2022-08-14T09:33:09.262Z,30.7
2022-08-14T09:34:09.375Z,30.7
2022-08-14T09:35:08.605Z,30.8
2022-08-14T09:36:07.393Z,30.9
2022-08-14T09:37:07.289Z,31
2022-08-14T09:38:19.574Z,31.2
2022-08-14T09:39:10.669Z,31
2022-08-14T09:40:07.360Z,30.6
2022-08-14T09:41:07.332Z,30.5
2022-08-14T09:42:20.768Z,30.5
2022-08-14T09:43:07.332Z,30.7
2022-08-14T09:44:07.369Z,30.6
2022-08-14T09:45:08.932Z,30.6
2022-08-14T09:46:07.352Z,30.5
2022-08-14T09:47:07.356Z,30.6
2022-08-14T09:48:07.367Z,30.7
2022-08-14T09:49:07.285Z,30.7
2022-08-14T09:50:07.404Z,30.9
2022-08-14T09:52:32.610Z,30.8
2022-08-14T09:53:17.789Z,30.4
2022-08-14T09:54:19.821Z,30.5
2022-08-14T09:55:07.299Z,30.5
2022-08-14T09:56:10.130Z,30.4
2022-08-14T09:57:08.955Z,29.9
2022-08-14T09:58:07.264Z,30
2022-08-14T09:59:07.321Z,30
2022-08-14T10:00:07.432Z,30
2022-08-14T10:01:07.476Z,30.4
2022-08-14T10:02:07.393Z,30.7
2022-08-14T10:03:07.443Z,30.8
2022-08-14T10:04:25.576Z,30.6
2022-08-14T10:05:08.667Z,30.7
2022-08-14T10:06:07.271Z,30.2
2022-08-14T10:07:08.448Z,30.1
2022-08-14T10:08:14.841Z,30.3
2022-08-14T10:09:16.512Z,30.6
2022-08-14T10:10:23.361Z,30.8
2022-08-14T10:11:07.402Z,30.8
2022-08-14T10:12:18.827Z,31
2022-08-14T10:13:07.409Z,31.3
2022-08-14T10:14:07.323Z,31.2
2022-08-14T10:15:07.326Z,31.1
2022-08-14T10:16:07.329Z,31.3
2022-08-14T10:17:08.707Z,31.4
2022-08-14T10:18:07.327Z,31.5
2022-08-14T10:19:09.254Z,31.6
2022-08-14T10:20:07.379Z,31.4
2022-08-14T10:21:09.727Z,31.5
2022-08-14T10:23:11.835Z,31.9
2022-08-14T10:23:15.574Z,31.7
2022-08-14T10:24:07.396Z,32.1
2022-08-14T10:25:07.550Z,32.2
2022-08-14T10:26:07.420Z,32.3
2022-08-14T10:27:07.464Z,32.4
2022-08-14T10:28:07.433Z,32.3
2022-08-14T10:29:20.213Z,32.4
2022-08-14T10:30:12.146Z,32.4
2022-08-14T10:31:07.328Z,32.6
2022-08-14T10:32:18.087Z,32.8
2022-08-14T10:33:07.336Z,32.7
2022-08-14T10:34:12.624Z,32.7
2022-08-14T10:35:13.584Z,32.6
2022-08-14T10:36:07.275Z,32.3
2022-08-14T10:37:14.113Z,32
2022-08-14T10:38:07.499Z,31.8
2022-08-14T10:39:07.386Z,31.8
2022-08-14T10:40:10.352Z,32
2022-08-14T10:41:07.435Z,32
2022-08-14T10:42:16.608Z,31.9
2022-08-14T10:43:07.300Z,31.7
2022-08-14T10:44:07.302Z,31.9
2022-08-14T10:45:07.317Z,31.9
2022-08-14T10:47:36.231Z,32.1
2022-08-14T10:47:39.943Z,32.2
2022-08-14T10:48:23.712Z,32.2
2022-08-14T10:49:07.276Z,32.4
2022-08-14T10:50:07.285Z,32.6
2022-08-14T10:51:08.713Z,32.5
2022-08-14T10:52:07.301Z,32.6
2022-08-14T10:53:07.918Z,32.6
2022-08-14T10:54:35.046Z,32.6
2022-08-14T10:55:07.284Z,32.5
2022-08-14T10:56:07.385Z,32.3
2022-08-14T10:57:07.428Z,32.7
2022-08-14T10:58:07.299Z,32.7
2022-08-14T10:59:08.226Z,32.4
2022-08-14T11:00:07.340Z,31.9
2022-08-14T11:01:07.287Z,31.8
2022-08-14T11:02:07.318Z,32.1
2022-08-14T11:03:07.327Z,32.4
2022-08-14T11:04:07.325Z,32.3
2022-08-14T11:05:07.340Z,32.6
2022-08-14T11:06:07.347Z,32.8
2022-08-14T11:07:07.351Z,33
2022-08-14T11:08:09.025Z,33.1
2022-08-14T11:09:07.373Z,33.2
2022-08-14T11:10:07.374Z,33.2
2022-08-14T11:11:07.380Z,33.3
2022-08-14T11:12:34.821Z,32.8
2022-08-14T11:13:07.353Z,32.9
2022-08-14T11:14:07.337Z,33
2022-08-14T11:15:07.415Z,32.9
2022-08-14T11:16:07.321Z,32.7
2022-08-14T11:17:07.313Z,32.4
2022-08-14T11:18:07.312Z,32.4
2022-08-14T11:19:07.334Z,32.3
2022-08-14T11:20:13.991Z,32.4
2022-08-14T11:21:08.318Z,32.4
2022-08-14T11:22:07.350Z,32.4
2022-08-14T11:23:07.755Z,32.6
2022-08-14T11:24:54.014Z,33
2022-08-14T11:25:07.363Z,33.1
2022-08-14T11:26:07.304Z,33.3
2022-08-14T11:27:07.351Z,33.5
2022-08-14T11:28:07.398Z,33.7
2022-08-14T11:29:07.408Z,33.7
2022-08-14T11:30:49.978Z,33.9
2022-08-14T11:31:07.411Z,34.4
2022-08-14T11:32:07.314Z,34.4
2022-08-14T11:33:07.426Z,34.2
2022-08-14T11:34:30.000Z,34.3
2022-08-14T11:35:07.350Z,34
2022-08-14T11:36:17.829Z,34
2022-08-14T11:37:18.685Z,33.7
2022-08-14T11:38:07.301Z,33.6
2022-08-14T11:39:09.835Z,33.3
2022-08-14T11:40:07.459Z,32.9
2022-08-14T11:41:07.526Z,32.6
2022-08-14T11:42:56.114Z,32.5
2022-08-14T11:43:07.713Z,32.7
2022-08-14T11:44:17.476Z,32.5
2022-08-14T11:45:10.992Z,32.3
2022-08-14T11:46:07.305Z,32.3
2022-08-14T11:47:07.407Z,32.2
2022-08-14T11:48:12.779Z,32
2022-08-14T11:49:07.478Z,31.9
2022-08-14T11:50:07.408Z,31.9
2022-08-14T11:51:07.311Z,32.1
2022-08-14T11:52:07.349Z,32.4
2022-08-14T11:53:08.488Z,32.8
2022-08-14T11:54:08.418Z,32.9
2022-08-14T11:55:07.360Z,33.1
2022-08-14T11:56:07.463Z,33.1
2022-08-14T11:57:07.563Z,33
2022-08-14T11:58:07.382Z,32.6
2022-08-14T11:59:10.313Z,33.3
2022-08-14T12:00:08.347Z,33.8
2022-08-14T12:01:07.405Z,34.5
2022-08-14T12:02:07.339Z,35.2
2022-08-14T12:03:07.806Z,35.9
2022-08-14T12:04:07.618Z,35.5
2022-08-14T12:05:09.211Z,35.6
2022-08-14T12:06:28.083Z,36
2022-08-14T12:07:07.336Z,36
2022-08-14T12:08:12.143Z,35.8
2022-08-14T12:09:08.710Z,35.9
2022-08-14T12:10:27.292Z,36.3
2022-08-14T12:11:07.367Z,36.6
2022-08-14T12:12:07.357Z,36.7
2022-08-14T12:13:07.368Z,36.9
2022-08-14T12:14:07.315Z,37.1
2022-08-14T12:15:07.312Z,37.1
2022-08-14T12:16:15.189Z,37.2
2022-08-14T12:17:12.127Z,36.9
2022-08-14T12:18:11.198Z,37
2022-08-14T12:19:07.331Z,37
2022-08-14T12:20:07.414Z,37.4
2022-08-14T12:21:07.422Z,37.9
2022-08-14T12:22:07.446Z,38.3
2022-08-14T12:23:07.390Z,38.5
2022-08-14T12:24:08.532Z,38.9
2022-08-14T12:25:11.125Z,39.3
2022-08-14T12:26:31.996Z,39.3
2022-08-14T12:27:07.363Z,39.5
2022-08-14T12:28:07.365Z,39.7
2022-08-14T12:29:07.368Z,39.7
2022-08-14T12:30:07.514Z,39.6
2022-08-14T12:31:07.526Z,39.9
2022-08-14T12:32:08.935Z,40.1
2022-08-14T12:33:07.627Z,40.3
2022-08-14T12:34:10.239Z,40.5
2022-08-14T12:35:07.326Z,39.9
2022-08-14T12:36:07.363Z,39.4
2022-08-14T12:37:07.385Z,38.6
2022-08-14T12:38:07.425Z,37.8
2022-08-14T12:39:07.428Z,37
2022-08-14T12:40:07.407Z,36.3
2022-08-14T12:41:07.938Z,36
2022-08-14T12:42:07.351Z,35.7
2022-08-14T12:43:07.362Z,36.1
2022-08-14T12:44:08.303Z,37.1
2022-08-14T12:45:07.478Z,37.6
2022-08-14T12:46:07.382Z,37.9
2022-08-14T12:47:07.394Z,38.6
2022-08-14T12:48:21.363Z,39
2022-08-14T12:49:07.340Z,39.9
2022-08-14T12:50:07.353Z,40.5
2022-08-14T12:51:07.419Z,40.9
2022-08-14T12:52:16.943Z,40.7
2022-08-14T12:53:14.501Z,39.2
2022-08-14T12:54:07.430Z,37.7
2022-08-14T12:55:07.344Z,37
2022-08-14T12:56:22.673Z,36.5
2022-08-14T12:57:07.346Z,35.9
2022-08-14T12:58:35.282Z,35.9
2022-08-14T12:59:07.454Z,36.7
2022-08-14T13:00:22.838Z,37.5
2022-08-14T13:01:16.326Z,38.1
2022-08-14T13:02:12.926Z,39
2022-08-14T13:03:07.340Z,39.8
2022-08-14T13:04:07.406Z,39.9
2022-08-14T13:05:07.749Z,40
2022-08-14T13:06:07.414Z,40.4
2022-08-14T13:07:07.424Z,40.6
2022-08-14T13:08:10.649Z,41.1
2022-08-14T13:09:07.832Z,41.2
2022-08-14T13:10:45.745Z,41.5
2022-08-14T13:11:07.353Z,41.8
2022-08-14T13:12:31.847Z,42.1
2022-08-14T13:13:15.728Z,42.4
2022-08-14T13:14:07.346Z,42.8
2022-08-14T13:15:08.899Z,43.3
2022-08-14T13:16:20.596Z,43.4
2022-08-14T13:17:07.365Z,42.9
2022-08-14T13:18:07.380Z,42.4
2022-08-14T13:19:09.709Z,42.4
2022-08-14T13:20:10.469Z,42.1
2022-08-14T13:21:07.400Z,42.6
2022-08-14T13:22:10.314Z,43
2022-08-14T13:23:07.405Z,42.9
2022-08-14T13:24:07.423Z,43.6
2022-08-14T13:25:07.345Z,44.1